Time;durP1;ratioP1;P1;durP2;ratioP2;P2;SDS_P1;SDS_P2;PMS_P1;PMS_P2;Temp;Humidity;BMP_temperature;BMP_pressure;BME280_temperature;BME280_humidity;BME280_pressure;Samples;Min_cycle;Max_cycle;Signal;HPM_P1;HPM_P2
2022/12/28 00:01:24;;;;;;;4.85;1.55;;;;;;;-148.88;94.25;76947.38;5012440;28;20486;-73
2022/12/28 00:03:50;;;;;;;6.13;1.52;;;;;;;-148.88;94.22;76941.28;5012575;28;20084;-73
2022/12/28 00:06:16;;;;;;;6.13;1.35;;;;;;;-148.88;94.71;76939.25;5012199;28;20093;-73
2022/12/28 00:08:42;;;;;;;5.95;1.60;;;;;;;-148.88;95.63;76935.19;5012266;28;20072;-73
2022/12/28 00:11:11;;;;;;;5.70;2.05;;;;;;;-148.88;95.28;76935.19;5012397;28;20026;-73
2022/12/28 00:13:37;;;;;;;8.07;1.52;;;;;;;-148.88;95.28;76927.06;4994636;28;20072;-73
2022/12/28 00:16:15;;;;;;;6.32;1.42;;;;;;;-148.88;94.65;76927.06;5012274;28;20025;-73
2022/12/28 00:18:41;;;;;;;5.05;1.42;;;;;;;-148.88;95.62;76923.00;4994619;28;20026;-73
2022/12/28 00:21:06;;;;;;;4.70;1.45;;;;;;;-148.88;95.24;76925.03;5012106;28;20071;-73
2022/12/28 00:23:32;;;;;;;3.45;1.17;;;;;;;-148.88;95.25;76918.94;5012007;28;20018;-73
2022/12/28 00:26:05;;;;;;;5.35;1.58;;;;;;;-148.88;95.25;76912.84;4994373;28;20157;-73
2022/12/28 00:28:31;;;;;;;6.15;1.55;;;;;;;-148.88;94.94;76904.72;5012123;28;20053;-73
2022/12/28 00:30:56;;;;;;;4.55;1.30;;;;;;;-148.88;95.30;76906.75;4994265;28;20088;-73
2022/12/28 00:33:22;;;;;;;5.88;1.50;;;;;;;-148.88;95.68;76892.53;5012101;28;20029;-73
2022/12/28 00:35:58;;;;;;;3.47;1.60;;;;;;;-148.88;95.94;76882.34;4994559;28;20162;-73
2022/12/28 00:38:24;;;;;;;4.72;1.17;;;;;;;-148.88;94.88;76870.16;5026789;28;20038;-73
2022/12/28 00:40:50;;;;;;;5.18;1.40;;;;;;;-148.88;95.00;76864.06;5035673;28;20034;-73
2022/12/28 00:43:15;;;;;;;6.15;1.75;;;;;;;-148.88;94.87;76862.03;5035591;28;20029;-73
2022/12/28 00:45:45;;;;;;;5.20;2.17;;;;;;;-148.88;94.89;76851.88;5035619;28;20202;-73
2022/12/28 00:48:11;;;;;;;5.78;1.50;;;;;;;-148.88;94.84;76849.84;5035925;28;20397;-73
2022/12/28 00:50:37;;;;;;;2.72;1.25;;;;;;;-148.88;94.84;76839.69;5035640;28;20029;-73
2022/12/28 00:53:02;;;;;;;3.72;1.73;;;;;;;-148.88;95.04;76837.66;5035478;28;20025;-73
2022/12/28 00:55:28;;;;;;;5.40;2.00;;;;;;;-148.88;95.08;76827.50;5035390;28;20031;-73
2022/12/28 00:57:53;;;;;;;7.60;1.92;;;;;;;-148.88;94.28;76819.38;5035316;28;20017;-73
2022/12/28 01:00:18;;;;;;;4.82;1.25;;;;;;;-148.88;94.48;76809.22;5035340;28;20026;-73
2022/12/28 01:02:44;;;;;;;6.07;1.80;;;;;;;-148.88;94.82;76815.31;5035358;28;20032;-73
2022/12/28 01:05:09;;;;;;;7.55;1.38;;;;;;;-148.88;94.82;76813.28;5033812;28;20048;-73
2022/12/28 01:07:34;;;;;;;2.28;1.40;;;;;;;-148.88;94.74;76805.16;5033775;28;20028;-73
2022/12/28 01:09:59;;;;;;;4.38;1.60;;;;;;;-148.88;94.89;76801.09;5033811;28;20173;-73
2022/12/28 01:12:25;;;;;;;2.95;1.33;;;;;;;-148.88;94.77;76801.09;5035542;28;20482;-73
2022/12/28 01:14:50;;;;;;;8.07;1.30;;;;;;;-148.88;94.16;76792.97;5035023;28;20028;-73
2022/12/28 01:17:15;;;;;;;4.38;1.30;;;;;;;-148.88;94.18;76790.94;5035057;28;20041;-73
2022/12/28 01:19:40;;;;;;;4.95;1.92;;;;;;;-148.88;94.04;76780.78;5034973;28;20053;-73
2022/12/28 01:22:07;;;;;;;4.43;1.40;;;;;;;-148.88;93.65;76776.72;5034895;28;20033;-73
2022/12/28 01:24:32;;;;;;;6.80;1.65;;;;;;;-148.88;93.73;76764.53;5035093;28;20041;-73
2022/12/28 01:26:57;;;;;;;2.85;1.27;;;;;;;-148.88;93.99;76764.53;5033512;28;20052;-73
2022/12/28 01:29:22;;;;;;;5.35;2.17;;;;;;;-148.88;93.27;76754.38;5034835;28;20091;-73
2022/12/28 01:31:48;;;;;;;7.82;1.25;;;;;;;-148.88;93.46;76756.41;5034845;28;20022;-73
2022/12/28 01:34:13;;;;;;;4.35;1.20;;;;;;;-148.88;93.21;76746.22;5033451;28;20033;-73
2022/12/28 01:36:39;;;;;;;4.80;1.25;;;;;;;-148.88;93.55;76744.19;5032256;28;20385;-73
2022/12/28 01:39:05;;;;;;;8.27;1.60;;;;;;;-148.88;93.53;76732.00;4997535;28;20041;-73
2022/12/28 01:41:34;;;;;;;4.93;0.93;;;;;;;-148.88;93.45;76738.09;5014793;28;20026;-73
2022/12/28 01:44:00;;;;;;;2.58;1.30;;;;;;;-148.88;92.99;76727.94;5014647;28;20501;-73
2022/12/28 01:46:37;;;;;;;8.23;1.40;;;;;;;-148.88;94.12;76725.91;4996985;28;20025;-73
2022/12/28 01:49:11;;;;;;;6.32;1.30;;;;;;;-148.88;94.78;76727.94;5013378;28;20286;-73
2022/12/28 01:51:53;;;;;;;2.90;0.98;;;;;;;-148.88;95.88;76734.03;4997851;28;20334;-73
2022/12/28 01:54:22;;;;;;;4.18;1.25;;;;;;;-148.88;96.91;76727.94;4996845;28;20021;-73
2022/12/28 01:56:47;;;;;;;5.55;1.20;;;;;;;-148.88;97.61;76723.88;5014576;28;20028;-73
2022/12/28 01:59:16;;;;;;;9.95;2.58;;;;;;;-148.88;97.55;76725.91;5014429;28;20371;-73
2022/12/28 02:01:41;;;;;;;3.53;1.10;;;;;;;-148.88;99.09;76727.94;5014528;28;20032;-73
2022/12/28 02:04:07;;;;;;;5.53;1.33;;;;;;;-148.88;99.36;76717.78;4996595;28;20025;-73
2022/12/28 02:06:32;;;;;;;4.65;1.25;;;;;;;-148.88;99.12;76715.75;5014461;28;20025;-73
2022/12/28 02:09:05;;;;;;;9.98;1.75;;;;;;;-148.88;100.00;76719.81;4996611;28;20141;-73
2022/12/28 02:11:31;;;;;;;5.63;1.33;;;;;;;-148.88;100.00;76719.81;5014189;28;20026;-73
2022/12/28 02:13:58;;;;;;;4.82;1.50;;;;;;;-148.88;100.00;76717.78;5014048;28;20040;-73
2022/12/28 02:16:23;;;;;;;2.33;0.93;;;;;;;-148.88;100.00;76715.75;5014053;28;20022;-73
2022/12/28 02:18:49;;;;;;;7.90;1.40;;;;;;;-148.88;100.00;76713.72;5014266;28;20052;-73
2022/12/28 02:21:32;;;;;;;3.70;1.20;;;;;;;-148.88;100.00;76707.63;5013960;28;20088;-73
2022/12/28 02:24:19;;;;;;;7.50;1.33;;;;;;;-148.88;100.00;76689.34;4996643;28;20018;-73
2022/12/28 02:26:52;;;;;;;3.00;1.08;;;;;;;-148.88;100.00;76683.25;5013828;28;20083;-73
2022/12/28 02:29:47;;;;;;;2.45;1.00;;;;;;;-148.88;100.00;76683.25;4996117;28;20030;-73
2022/12/28 02:32:49;;;;;;;2.90;1.30;;;;;;;-148.88;100.00;76687.31;5013988;28;20022;-73
2022/12/28 02:35:46;;;;;;;3.42;1.23;;;;;;;-148.88;100.00;76683.25;5013726;28;20053;-73
2022/12/28 02:38:32;;;;;;;3.45;0.93;;;;;;;-148.88;100.00;76675.13;5013740;28;20026;-73
2022/12/28 02:41:03;;;;;;;3.70;1.10;;;;;;;-148.88;100.00;76671.06;4996150;28;20034;-73
2022/12/28 02:43:31;;;;;;;5.63;1.50;;;;;;;-148.88;100.00;76658.88;5013548;28;20029;-73
2022/12/28 02:51:56;;;;;;;5.65;1.60;;;;;;;-148.88;100.00;76646.69;5013708;28;20072;-73
2022/12/28 02:57:34;;;;;;;4.57;1.27;;;;;;;-148.88;100.00;76630.44;5013397;28;20129;-73
2022/12/28 03:00:08;;;;;;;5.05;1.20;;;;;;;-148.88;100.00;76632.47;5013092;28;20080;-73
2022/12/28 03:03:01;;;;;;;6.20;1.60;;;;;;;-148.88;100.00;76618.25;5013220;28;20407;-73
2022/12/28 03:09:02;;;;;;;9.20;1.60;;;;;;;-148.88;100.00;76610.13;5013447;28;20052;-73
2022/12/28 03:12:00;;;;;;;2.95;1.33;;;;;;;-148.88;100.00;76604.00;4992623;28;20037;-73
2022/12/28 03:14:31;;;;;;;7.53;1.40;;;;;;;-148.88;100.00;76593.84;5007678;28;20048;-73
2022/12/28 03:31:05;;;;;;;8.48;1.90;;;;;;;-148.88;100.00;76577.59;5013983;28;20489;-73
2022/12/28 03:33:32;;;;;;;5.20;1.45;;;;;;;-148.88;100.00;76569.47;5012914;28;20026;-73
2022/12/28 03:36:11;;;;;;;5.38;1.50;;;;;;;-148.88;100.00;76561.34;5012702;28;20030;-73
2022/12/28 03:39:07;;;;;;;5.10;1.48;;;;;;;-148.88;100.00;76547.13;5096280;22;20056;-81
2022/12/28 03:41:50;;;;;;;2.97;1.30;;;;;;;-148.88;100.00;76536.97;5058433;28;20028;-82
2022/12/28 03:44:22;;;;;;;4.15;1.52;;;;;;;-148.88;100.00;76528.84;5058330;28;20452;-82
2022/12/28 03:46:59;;;;;;;6.35;2.17;;;;;;;-148.88;100.00;76512.59;5072746;28;20028;-82
2022/12/28 03:49:26;;;;;;;5.32;1.85;;;;;;;-148.88;100.00;76502.44;5072594;28;20024;-82
2022/12/28 03:51:54;;;;;;;7.93;1.77;;;;;;;-148.88;100.00;76500.41;5055115;28;20067;-82
2022/12/28 03:54:19;;;;;;;4.72;1.45;;;;;;;-148.88;100.00;76500.41;5072358;28;20030;-82
2022/12/28 03:56:50;;;;;;;6.95;1.40;;;;;;;-148.88;100.00;76480.09;5054237;28;20021;-83
2022/12/28 03:59:17;;;;;;;3.13;1.40;;;;;;;-148.88;100.00;76480.09;5054396;28;20044;-82
2022/12/28 04:01:43;;;;;;;6.30;1.70;;;;;;;-148.88;100.00;76453.69;5054264;28;20391;-82
2022/12/28 04:04:09;;;;;;;3.40;1.33;;;;;;;-148.88;100.00;76447.59;5054495;28;20021;-82
2022/12/28 04:06:34;;;;;;;4.47;1.58;;;;;;;-148.88;100.00;76437.44;5055120;28;20468;-82
2022/12/28 04:09:00;;;;;;;6.63;2.05;;;;;;;-148.88;100.00;76431.34;5074230;28;20025;-83
2022/12/28 04:11:25;;;;;;;6.85;1.50;;;;;;;-148.88;100.00;76427.28;5072937;28;20396;-82
2022/12/28 04:13:51;;;;;;;4.57;1.50;;;;;;;-148.88;100.00;76431.34;5073729;28;20031;-82
2022/12/28 04:16:16;;;;;;;3.13;1.55;;;;;;;-148.88;100.00;76419.16;5054710;28;20050;-80
2022/12/28 04:18:41;;;;;;;5.72;1.52;;;;;;;-148.88;100.00;76411.00;5054587;28;20091;-81
2022/12/28 04:21:08;;;;;;;5.20;1.60;;;;;;;-148.88;100.00;76394.75;5054217;28;20434;-80
2022/12/28 04:23:34;;;;;;;3.97;1.60;;;;;;;-148.88;100.00;76406.94;5054775;28;20039;-82
2022/12/28 04:26:03;;;;;;;4.97;1.67;;;;;;;-148.88;100.00;76402.88;5072308;28;20020;-80
2022/12/28 04:28:30;;;;;;;4.18;1.50;;;;;;;-148.88;100.00;76384.59;5055074;28;20066;-81
2022/12/28 04:30:57;;;;;;;5.43;1.70;;;;;;;-148.88;100.00;76390.69;5055753;28;20051;-82
2022/12/28 04:33:23;;;;;;;3.13;1.55;;;;;;;-148.88;100.00;76394.75;5055120;28;20035;-82
2022/12/28 04:35:50;;;;;;;5.20;1.60;;;;;;;-148.88;100.00;76394.75;5073404;28;20028;-82
2022/12/28 04:38:16;;;;;;;3.65;1.75;;;;;;;-148.88;100.00;76398.81;5068112;28;20039;-81
2022/12/28 04:40:42;;;;;;;5.28;1.70;;;;;;;-148.88;100.00;76392.72;5071657;28;20021;-81
2022/12/28 04:43:08;;;;;;;3.20;1.50;;;;;;;-148.88;100.00;76398.81;5074505;28;20020;-82
2022/12/28 04:45:34;;;;;;;4.50;1.77;;;;;;;-148.88;100.00;76402.88;5073922;28;20059;-82
2022/12/28 04:48:00;;;;;;;6.82;2.33;;;;;;;-148.88;100.00;76386.63;5067222;28;20377;-84
2022/12/28 04:50:26;;;;;;;5.45;1.83;;;;;;;-148.88;100.00;76370.38;5080820;28;20024;-84
2022/12/28 04:52:52;;;;;;;5.50;2.13;;;;;;;-148.88;100.00;76358.19;5081438;28;20384;-81
2022/12/28 04:55:18;;;;;;;3.75;1.45;;;;;;;-148.88;100.00;76352.09;5079759;28;20517;-82
2022/12/28 04:57:45;;;;;;;4.60;1.70;;;;;;;-148.88;100.00;76346.00;5074589;28;20116;-81
2022/12/28 05:00:11;;;;;;;5.72;1.67;;;;;;;-148.88;100.00;76341.94;5072896;28;20469;-82
2022/12/28 05:02:36;;;;;;;4.47;1.85;;;;;;;-148.88;100.00;76339.91;5073801;28;20059;-82
2022/12/28 05:05:04;;;;;;;3.30;1.60;;;;;;;-148.88;100.00;76329.75;5075106;28;20372;-82
2022/12/28 05:07:30;;;;;;;6.00;1.73;;;;;;;-148.88;100.00;76333.81;5076013;28;20060;-82
2022/12/28 05:09:55;;;;;;;4.55;1.58;;;;;;;-148.88;100.00;76343.97;5076498;28;20028;-82
2022/12/28 05:12:21;;;;;;;3.55;1.88;;;;;;;-148.88;100.00;76335.84;5077508;28;20028;-81
2022/12/28 05:14:47;;;;;;;6.00;2.05;;;;;;;-148.88;100.00;76348.03;5076852;28;20074;-81
2022/12/28 05:17:12;;;;;;;7.03;2.00;;;;;;;-148.88;100.00;76341.94;5075215;28;20012;-83
2022/12/28 05:19:38;;;;;;;2.95;1.63;;;;;;;-148.88;100.00;76341.94;5075692;28;20024;-82
2022/12/28 05:22:03;;;;;;;5.35;1.83;;;;;;;-148.88;100.00;76333.81;5073726;28;20177;-82
2022/12/28 05:24:28;;;;;;;4.18;2.15;;;;;;;-148.88;100.00;76341.94;5081142;28;20084;-82
2022/12/28 05:26:54;;;;;;;4.97;2.15;;;;;;;-148.88;100.00;76323.66;5081681;28;20051;-85
2022/12/28 05:29:19;;;;;;;3.95;2.00;;;;;;;-148.88;100.00;76323.66;5084281;28;20028;-84
2022/12/28 05:31:44;;;;;;;5.40;2.00;;;;;;;-148.88;100.00;76325.69;5074700;28;20095;-83
2022/12/28 05:34:10;;;;;;;5.95;2.13;;;;;;;-148.88;100.00;76317.56;5075034;28;20025;-83
2022/12/28 05:36:36;;;;;;;4.18;2.05;;;;;;;-148.88;100.00;76321.63;5075247;28;20029;-82
2022/12/28 05:39:03;;;;;;;4.38;2.25;;;;;;;-148.88;100.00;76307.41;5057961;28;20111;-81
2022/12/28 05:41:30;;;;;;;3.30;1.65;;;;;;;-148.88;100.00;76311.47;5059793;28;20050;-83
2022/12/28 05:43:58;;;;;;;3.72;2.10;;;;;;;-148.88;100.00;76305.38;5062564;28;20107;-83
2022/12/28 05:46:28;;;;;;;4.50;2.28;;;;;;;-148.88;100.00;76305.38;5081402;28;20058;-82
2022/12/28 05:48:54;;;;;;;6.15;2.58;;;;;;;-148.88;100.00;76309.44;5063457;28;20479;-83
2022/12/28 05:51:23;;;;;;;5.63;2.30;;;;;;;-148.88;100.00;76305.38;5080899;28;20020;-83
2022/12/28 05:53:48;;;;;;;3.67;2.15;;;;;;;-148.88;100.00;76301.31;5060878;28;20408;-83
2022/12/28 05:56:16;;;;;;;7.70;2.67;;;;;;;-148.88;100.00;76295.22;5077772;28;20028;-83
2022/12/28 05:58:43;;;;;;;4.50;2.10;;;;;;;-148.88;100.00;76303.34;5060558;28;20028;-84
2022/12/28 06:01:21;;;;;;;3.83;2.25;;;;;;;-148.88;100.00;76299.28;5078852;28;20024;-82
2022/12/28 06:03:51;;;;;;;4.70;2.65;;;;;;;-148.88;100.00;76293.19;5077074;28;20040;-83
2022/12/28 06:06:19;;;;;;;5.07;2.47;;;;;;;-148.88;100.00;76301.31;5057286;28;20028;-82
2022/12/28 06:08:46;;;;;;;3.97;2.38;;;;;;;-148.88;100.00;76295.22;5039842;28;20042;-83
2022/12/28 06:11:15;;;;;;;5.20;2.42;;;;;;;-148.88;100.00;76295.22;5074777;28;20056;-83
2022/12/28 06:13:41;;;;;;;6.72;2.72;;;;;;;-148.88;100.00;76293.19;5040271;28;20063;-83
2022/12/28 06:16:10;;;;;;;5.07;2.72;;;;;;;-148.88;100.00;76276.94;5056373;28;20107;-83
2022/12/28 06:18:36;;;;;;;4.95;2.38;;;;;;;-148.88;100.00;76272.88;5074816;28;20031;-82
2022/12/28 06:21:11;;;;;;;4.82;2.38;;;;;;;-148.88;100.00;76274.91;5075250;28;20024;-81
2022/12/28 06:23:40;;;;;;;4.70;2.40;;;;;;;-148.88;100.00;76264.75;5075435;28;20028;-81
2022/12/28 06:26:07;;;;;;;4.70;2.75;;;;;;;-148.88;100.00;76266.78;5076315;28;20459;-83
2022/12/28 06:28:35;;;;;;;4.88;2.55;;;;;;;-148.88;100.00;76264.75;5074871;28;20222;-81
2022/12/28 06:31:12;;;;;;;5.70;2.95;;;;;;;-148.88;100.00;76260.69;5057022;28;20088;-83
2022/12/28 06:33:40;;;;;;;6.72;2.80;;;;;;;-148.88;100.00;76258.66;5056489;28;20025;-80
2022/12/28 06:36:17;;;;;;;5.00;2.42;;;;;;;-148.88;100.00;76262.72;5056490;28;20042;-82
2022/12/28 06:38:43;;;;;;;5.22;2.97;;;;;;;-148.88;100.00;76248.50;5074931;28;20438;-82
2022/12/28 06:41:10;;;;;;;4.55;2.58;;;;;;;-148.88;100.00;76256.63;5056584;28;20103;-83
2022/12/28 06:43:39;;;;;;;6.10;2.70;;;;;;;-148.88;100.00;76260.69;5056187;28;20032;-80
2022/12/28 06:46:05;;;;;;;6.28;2.83;;;;;;;-148.88;100.00;76252.56;5055662;28;20034;-81
2022/12/28 06:48:33;;;;;;;3.78;2.47;;;;;;;-148.88;100.00;76254.59;5073843;28;20024;-81
2022/12/28 06:51:01;;;;;;;8.43;3.15;;;;;;;-148.88;100.00;76256.63;5056035;28;20334;-84
2022/12/28 06:53:30;;;;;;;4.25;2.70;;;;;;;-148.88;100.00;76260.69;5076990;28;20068;-85
2022/12/28 06:55:58;;;;;;;7.32;3.13;;;;;;;-148.88;100.00;76256.63;5062141;28;20135;-84
2022/12/28 06:58:28;;;;;;;7.53;3.08;;;;;;;-148.88;100.00;76252.56;5059823;28;20024;-83
2022/12/28 07:00:54;;;;;;;5.30;2.88;;;;;;;-148.88;100.00;76248.50;5061608;28;20054;-84
2022/12/28 07:03:21;;;;;;;8.02;3.30;;;;;;;-148.88;100.00;76240.38;5059540;28;20055;-85
2022/12/28 07:05:46;;;;;;;6.93;3.45;;;;;;;-148.88;100.00;76240.38;5077278;28;20067;-83
2022/12/28 07:08:12;;;;;;;5.32;3.05;;;;;;;-148.88;100.00;76228.19;5076907;28;20024;-83
2022/12/28 07:10:39;;;;;;;5.80;3.00;;;;;;;-148.88;100.00;76230.22;5076761;28;20032;-83
2022/12/28 07:13:06;;;;;;;7.47;3.33;;;;;;;-148.88;100.00;76228.19;5057518;28;20431;-84
2022/12/28 07:15:33;;;;;;;6.38;3.58;;;;;;;-148.88;100.00;76234.28;5058252;28;20025;-82
2022/12/28 07:17:58;;;;;;;7.20;3.30;;;;;;;-148.88;100.00;76220.06;5059691;28;20482;-85
2022/12/28 07:20:24;;;;;;;7.95;3.40;;;;;;;-148.88;100.00;76216.00;5060946;28;20040;-86
2022/12/28 07:22:49;;;;;;;5.65;3.63;;;;;;;-148.88;100.00;76220.06;5079294;28;20108;-86
2022/12/28 07:25:14;;;;;;;7.20;3.40;;;;;;;-148.88;100.00;76230.22;5060166;28;20024;-85
2022/12/28 07:27:40;;;;;;;6.68;3.83;;;;;;;-148.88;100.00;76224.13;5077457;28;20175;-86
2022/12/28 07:30:06;;;;;;;6.53;3.45;;;;;;;-148.88;100.00;76224.13;5077702;28;20048;-84
2022/12/28 07:32:31;;;;;;;5.35;3.72;;;;;;;-148.88;100.00;76224.13;5058787;28;20069;-84
2022/12/28 07:34:56;;;;;;;7.43;3.88;;;;;;;-148.88;100.00;76228.19;5058468;28;20035;-85
2022/12/28 07:37:22;;;;;;;7.68;3.35;;;;;;;-148.88;100.00;76232.25;5062933;28;20027;-85
2022/12/28 07:39:47;;;;;;;8.35;3.72;;;;;;;-148.88;100.00;76220.06;5073978;28;20032;-85
2022/12/28 07:42:13;;;;;;;6.82;4.40;;;;;;;-148.88;100.00;76230.22;5076396;28;20032;-87
2022/12/28 07:44:44;;;;;;;7.15;3.40;;;;;;;-148.88;100.00;76228.19;5074438;28;20024;-85
2022/12/28 07:47:09;;;;;;;7.80;4.50;;;;;;;-148.88;100.00;76238.34;5074211;28;20021;-84
2022/12/28 07:49:35;;;;;;;6.30;3.97;;;;;;;-148.88;100.00;76228.19;5075275;28;20028;-85
2022/12/28 07:52:00;;;;;;;4.55;3.25;;;;;;;-148.88;100.00;76222.09;5073267;28;20119;-85
2022/12/28 07:54:25;;;;;;;5.95;3.30;;;;;;;-148.88;100.00;76228.19;5071976;28;20089;-82
2022/12/28 07:56:50;;;;;;;4.95;3.28;;;;;;;-148.88;100.00;76226.16;5072694;28;20338;-84
2022/12/28 07:59:16;;;;;;;6.38;3.15;;;;;;;-148.88;100.00;76222.09;5071954;28;20032;-83
2022/12/28 08:01:41;;;;;;;5.53;3.78;;;;;;;-148.88;100.00;76216.00;5074704;28;20020;-84
2022/12/28 08:04:10;;;;;;;9.05;4.72;;;;;;;-148.88;100.00;76211.94;5071563;28;20107;-86
2022/12/28 08:06:38;;;;;;;6.95;4.28;;;;;;;-148.88;100.00;76216.00;5071374;28;20032;-84
2022/12/28 08:09:07;;;;;;;6.00;4.07;;;;;;;-148.88;100.00;76211.94;5072549;28;20024;-86
2022/12/28 08:11:35;;;;;;;6.68;4.18;;;;;;;-148.88;100.00;76216.00;5071485;28;20024;-87
2022/12/28 08:14:02;;;;;;;6.43;4.20;;;;;;;-148.88;100.00;76216.00;5073145;28;20509;-85
2022/12/28 08:16:31;;;;;;;6.40;3.67;;;;;;;-148.88;100.00;76205.84;5071154;28;20024;-85
2022/12/28 08:18:56;;;;;;;7.18;4.10;;;;;;;-148.88;100.00;76213.97;5073066;28;20029;-87
2022/12/28 08:21:30;;;;;;;7.20;3.70;;;;;;;-148.88;100.00;76207.88;5071207;28;20112;-85
2022/12/28 08:23:58;;;;;;;7.13;3.53;;;;;;;-148.88;100.00;76203.81;5071275;28;20035;-85
2022/12/28 08:33:23;;;;;;;6.28;2.95;;;;;;;-148.88;100.00;76203.81;5072705;28;20032;-84
2022/12/28 08:36:05;;;;;;;6.07;3.38;;;;;;;-148.88;100.00;76209.91;5070890;28;20476;-84
2022/12/28 08:38:30;;;;;;;4.75;2.70;;;;;;;-148.88;100.00;76203.81;5070709;28;20108;-83
2022/12/28 08:41:04;;;;;;;4.80;3.20;;;;;;;-148.88;100.00;76197.72;5071189;28;20063;-84
2022/12/28 08:46:54;;;;;;;5.15;2.90;;;;;;;-148.88;100.00;76207.88;5071928;28;20035;-84
2022/12/28 08:59:30;;;;;;;4.63;3.42;;;;;;;-148.88;100.00;76197.72;5041725;22;20057;-77
2022/12/28 09:02:49;;;;;;;4.78;3.13;;;;;;;-148.88;100.00;76199.75;5035445;28;20035;-77
2022/12/28 09:06:10;;;;;;;7.35;4.70;;;;;;;-148.88;100.00;76201.78;4996607;28;20030;-77
2022/12/28 09:09:14;;;;;;;4.82;2.90;;;;;;;-148.88;100.00;76211.94;5015816;28;20037;-76
2022/12/28 09:11:40;;;;;;;7.15;3.55;;;;;;;-148.88;100.00;76207.88;4998650;28;20030;-77
2022/12/28 09:14:08;;;;;;;5.80;3.22;;;;;;;-148.88;100.00;76207.88;5015594;28;20036;-78
2022/12/28 09:16:35;;;;;;;7.18;3.80;;;;;;;-148.88;100.00;76199.75;5016029;28;20022;-78
2022/12/28 09:19:02;;;;;;;5.70;3.58;;;;;;;-148.88;100.00;76195.69;5015624;28;20144;-77
2022/12/28 09:21:30;;;;;;;7.00;4.45;;;;;;;-148.88;100.00;76203.81;5015852;28;20080;-77
2022/12/28 09:23:55;;;;;;;8.43;3.60;;;;;;;-148.88;100.00;76205.84;5015834;28;20163;-77
2022/12/28 09:26:24;;;;;;;5.05;3.70;;;;;;;-148.88;100.00;76199.75;5015073;28;20105;-77
2022/12/28 09:28:55;;;;;;;5.18;3.42;;;;;;;-148.88;100.00;76191.63;4997402;28;20516;-77
2022/12/28 09:31:22;;;;;;;5.25;3.08;;;;;;;-148.88;100.00;76175.38;4997487;28;20021;-78
2022/12/28 09:34:03;;;;;;;5.38;3.05;;;;;;;-148.88;100.00;76179.44;5015984;28;20025;-77
2022/12/28 09:36:37;;;;;;;5.80;3.35;;;;;;;-148.88;100.00;76177.41;5015384;28;20079;-77
2022/12/28 09:39:07;;;;;;;5.93;3.97;;;;;;;-148.88;100.00;76183.50;5014906;28;20022;-77
2022/12/28 09:41:48;;;;;;;5.03;2.90;;;;;;;-148.88;100.00;76167.25;5014786;28;20045;-77
2022/12/28 09:44:14;;;;;;;5.47;3.38;;;;;;;-148.88;100.00;76175.38;5014717;28;20167;-77
2022/12/28 09:46:45;;;;;;;8.35;3.00;;;;;;;-148.88;100.00;76167.25;5014880;28;20394;-79
2022/12/28 09:49:15;;;;;;;5.93;3.83;;;;;;;-148.88;100.00;76159.13;4999164;28;20048;-77
2022/12/28 09:51:54;;;;;;;6.60;3.53;;;;;;;-148.88;100.00;76159.13;5014673;28;20032;-77
2022/12/28 09:54:19;;;;;;;4.95;2.92;;;;;;;-148.88;100.00;76140.84;5014734;28;20109;-77
2022/12/28 09:56:46;;;;;;;4.38;3.10;;;;;;;-148.88;100.00;76151.00;5014395;28;20172;-77
2022/12/28 09:59:17;;;;;;;5.25;3.25;;;;;;;-148.88;100.00;76144.91;4996752;28;20025;-79
2022/12/28 10:01:49;;;;;;;5.28;3.42;;;;;;;-148.88;100.00;76140.84;4996798;28;20026;-77
2022/12/28 10:04:14;;;;;;;5.68;3.40;;;;;;;-148.88;100.00;76142.88;5014317;28;20026;-77
2022/12/28 10:06:39;;;;;;;5.10;3.20;;;;;;;-148.88;100.00;76136.78;5014610;28;20032;-77
2022/12/28 10:09:14;;;;;;;5.78;3.33;;;;;;;-148.88;100.00;76130.69;5013163;28;20030;-77
2022/12/28 10:11:41;;;;;;;6.28;3.60;;;;;;;-148.88;100.00;76126.59;5015049;28;20058;-78
2022/12/28 10:14:19;;;;;;;6.20;3.30;;;;;;;-148.88;100.00;76130.69;5014176;28;20033;-77
2022/12/28 10:16:45;;;;;;;4.88;3.25;;;;;;;-148.88;100.00;76116.44;4996948;28;20378;-78
2022/12/28 10:19:16;;;;;;;5.25;3.28;;;;;;;-148.88;100.00;76110.34;4997044;28;20482;-76
2022/12/28 10:21:43;;;;;;;5.18;3.15;;;;;;;-148.88;100.00;76118.47;4996635;28;20102;-77
2022/12/28 10:24:12;;;;;;;6.05;3.15;;;;;;;-148.88;100.00;76118.47;5013991;28;20065;-77
2022/12/28 10:26:38;;;;;;;5.60;4.00;;;;;;;-148.88;100.00;76110.34;5013794;28;20038;-77
2022/12/28 10:29:04;;;;;;;6.80;3.80;;;;;;;-148.88;100.00;76102.22;5013817;28;20474;-77
2022/12/28 10:31:35;;;;;;;6.55;3.88;;;;;;;-148.88;100.00;76092.06;5013887;28;20034;-77
2022/12/28 10:34:01;;;;;;;6.53;4.00;;;;;;;-148.88;100.00;76098.16;5013776;28;20065;-77
2022/12/28 10:36:33;;;;;;;7.20;4.40;;;;;;;-148.88;100.00;76094.09;5012377;28;20053;-77
2022/12/28 10:38:59;;;;;;;6.28;3.85;;;;;;;-148.88;100.00;76098.16;5014018;28;20041;-77
2022/12/28 10:41:35;;;;;;;6.20;3.90;;;;;;;-148.88;100.00;76071.75;5013673;28;20030;-77
2022/12/28 10:44:13;;;;;;;7.00;3.75;;;;;;;-148.88;100.00;76081.91;5013560;28;20029;-77
2022/12/28 10:46:51;;;;;;;6.28;3.65;;;;;;;-148.88;100.00;76069.72;4995955;28;20462;-78
2022/12/28 10:49:16;;;;;;;5.85;3.63;;;;;;;-148.88;100.00;76067.69;5013600;28;20036;-77
2022/12/28 10:52:01;;;;;;;5.68;3.42;;;;;;;-148.88;100.00;76059.56;5012213;28;20018;-77
2022/12/28 10:54:32;;;;;;;5.57;3.10;;;;;;;-148.88;100.00;76055.50;5013536;28;20048;-77
2022/12/28 10:56:57;;;;;;;4.60;3.03;;;;;;;-148.88;100.00;76053.47;4995716;28;20375;-77
2022/12/28 10:59:26;;;;;;;6.40;3.70;;;;;;;-148.88;100.00;76051.44;5013517;28;20091;-77
2022/12/28 11:01:52;;;;;;;5.80;3.80;;;;;;;-148.88;100.00;76041.28;5013548;28;20412;-77
2022/12/28 11:04:19;;;;;;;7.32;3.30;;;;;;;-148.88;100.00;76037.22;4996786;28;20458;-77
2022/12/28 11:06:59;;;;;;;6.20;3.60;;;;;;;-148.88;100.00;76043.31;4995685;28;20038;-77
2022/12/28 11:09:30;;;;;;;6.07;3.30;;;;;;;-148.88;100.00;76041.28;5013458;28;20026;-77
2022/12/28 11:12:15;;;;;;;5.20;3.20;;;;;;;-148.88;100.00;76045.34;4995495;28;20025;-77
2022/12/28 11:14:40;;;;;;;6.30;3.30;;;;;;;-148.88;100.00;76035.19;4995469;28;20041;-77
2022/12/28 11:17:19;;;;;;;6.00;3.53;;;;;;;-148.88;100.00;76033.16;4996077;28;20056;-77
2022/12/28 11:19:46;;;;;;;6.60;3.97;;;;;;;-148.88;100.00;76029.09;4995312;28;20552;-77
2022/12/28 11:22:17;;;;;;;5.65;3.75;;;;;;;-148.88;100.00;76033.16;5012857;28;20030;-77
2022/12/28 11:24:43;;;;;;;6.43;4.10;;;;;;;-148.88;100.00;76025.03;5011884;28;20117;-78
2022/12/28 11:27:15;;;;;;;8.10;4.22;;;;;;;-148.88;100.00;76018.94;4995098;28;20118;-77
2022/12/28 11:29:44;;;;;;;6.30;3.70;;;;;;;-148.88;100.00;76016.91;4995240;28;20061;-77
2022/12/28 11:32:21;;;;;;;7.20;4.22;;;;;;;-148.88;100.00;76004.72;5012674;28;20022;-77
2022/12/28 11:34:47;;;;;;;7.20;4.40;;;;;;;-148.88;100.00;76016.91;5012724;28;20506;-77
2022/12/28 11:37:14;;;;;;;7.65;4.18;;;;;;;-148.88;100.00;76012.84;5012847;28;20022;-77
2022/12/28 11:39:44;;;;;;;6.60;4.55;;;;;;;-148.88;100.00;76004.72;5012569;28;20030;-77
2022/12/28 11:42:10;;;;;;;7.78;4.15;;;;;;;-148.88;100.00;76000.66;5012617;28;20030;-77
2022/12/28 11:44:38;;;;;;;6.95;4.05;;;;;;;-148.88;100.00;76004.72;4994866;28;20099;-76
2022/12/28 11:47:19;;;;;;;7.00;4.43;;;;;;;-148.88;100.00;76002.69;5012410;28;20471;-77
2022/12/28 11:49:46;;;;;;;6.63;4.43;;;;;;;-148.88;100.00;75996.59;5012737;28;20026;-77
2022/12/28 11:52:26;;;;;;;8.30;4.55;;;;;;;-148.88;100.00;75996.59;5012772;28;20025;-77
2022/12/28 11:55:16;;;;;;;7.40;4.40;;;;;;;-148.88;100.00;75996.59;5012881;28;20022;-77
2022/12/28 11:57:43;;;;;;;8.68;5.25;;;;;;;-148.88;100.00;75992.53;5030434;28;20068;-77
2022/12/28 12:00:38;;;;;;;9.23;5.18;;;;;;;-148.88;100.00;75990.50;5032059;28;20085;-77
2022/12/28 12:03:03;;;;;;;9.65;5.90;;;;;;;-148.88;100.00;75980.34;5038484;28;20064;-76
2022/12/28 12:05:34;;;;;;;8.85;5.38;;;;;;;-148.88;100.00;75980.34;5031838;28;20057;-77
2022/12/28 12:08:00;;;;;;;8.05;5.38;;;;;;;-148.88;100.00;75976.28;5031895;28;20497;-77
2022/12/28 12:10:30;;;;;;;12.20;6.22;;;;;;;-148.88;100.00;75970.19;5032185;28;20052;-77